sensor_id;sensor_type;location;lat;lon;timestamp;temperature;humidity
70368;DHT22;57789;53.868;10.728;2023-08-21T00:02:01;18.70;99.90
70368;DHT22;57789;53.868;10.728;2023-08-21T00:04:27;18.80;99.90
70368;DHT22;57789;53.868;10.728;2023-08-21T00:06:53;18.70;99.90
70368;DHT22;57789;53.868;10.728;2023-08-21T00:09:19;18.50;99.90
70368;DHT22;57789;53.868;10.728;2023-08-21T00:11:44;18.40;99.90
70368;DHT22;57789;53.868;10.728;2023-08-21T00:14:10;18.30;99.90
70368;DHT22;57789;53.868;10.728;2023-08-21T00:16:35;18.10;99.90
70368;DHT22;57789;53.868;10.728;2023-08-21T00:19:01;18.10;99.90
70368;DHT22;57789;53.868;10.728;2023-08-21T00:21:27;18.10;99.90
70368;DHT22;57789;53.868;10.728;2023-08-21T00:23:52;18.10;99.90
70368;DHT22;57789;53.868;10.728;2023-08-21T00:26:18;18.10;99.90
70368;DHT22;57789;53.868;10.728;2023-08-21T00:28:44;18.20;99.90
70368;DHT22;57789;53.868;10.728;2023-08-21T00:31:09;18.20;99.90
70368;DHT22;57789;53.868;10.728;2023-08-21T00:33:35;18.30;99.90
70368;DHT22;57789;53.868;10.728;2023-08-21T00:36:02;18.40;99.90
70368;DHT22;57789;53.868;10.728;2023-08-21T00:38:28;18.40;99.90
70368;DHT22;57789;53.868;10.728;2023-08-21T00:40:54;18.40;99.90
70368;DHT22;57789;53.868;10.728;2023-08-21T00:43:20;18.50;99.90
70368;DHT22;57789;53.868;10.728;2023-08-21T00:45:46;18.40;99.90
70368;DHT22;57789;53.868;10.728;2023-08-21T00:48:13;18.50;99.90
70368;DHT22;57789;53.868;10.728;2023-08-21T00:50:40;18.40;99.90
70368;DHT22;57789;53.868;10.728;2023-08-21T00:53:06;18.40;99.90
70368;DHT22;57789;53.868;10.728;2023-08-21T00:55:32;18.40;99.90
70368;DHT22;57789;53.868;10.728;2023-08-21T00:58:00;18.30;99.90
70368;DHT22;57789;53.868;10.728;2023-08-21T01:00:27;18.30;99.90
70368;DHT22;57789;53.868;10.728;2023-08-21T01:02:54;18.20;99.90
70368;DHT22;57789;53.868;10.728;2023-08-21T01:05:22;18.20;99.90
70368;DHT22;57789;53.868;10.728;2023-08-21T01:10:56;18.00;99.90
70368;DHT22;57789;53.868;10.728;2023-08-21T01:13:47;18.00;99.90
70368;DHT22;57789;53.868;10.728;2023-08-21T01:16:16;18.00;99.90
70368;DHT22;57789;53.868;10.728;2023-08-21T01:18:45;18.00;99.90
70368;DHT22;57789;53.868;10.728;2023-08-21T01:21:14;18.00;99.90
70368;DHT22;57789;53.868;10.728;2023-08-21T01:23:41;17.90;99.90
70368;DHT22;57789;53.868;10.728;2023-08-21T01:26:09;17.90;99.90
70368;DHT22;57789;53.868;10.728;2023-08-21T01:28:35;17.90;99.90
70368;DHT22;57789;53.868;10.728;2023-08-21T01:33:50;17.90;99.90
70368;DHT22;57789;53.868;10.728;2023-08-21T01:36:17;18.00;99.90
70368;DHT22;57789;53.868;10.728;2023-08-21T01:38:43;18.00;99.90
70368;DHT22;57789;53.868;10.728;2023-08-21T01:41:09;18.00;99.90
70368;DHT22;57789;53.868;10.728;2023-08-21T01:43:35;17.90;99.90
70368;DHT22;57789;53.868;10.728;2023-08-21T01:46:01;17.90;99.90
70368;DHT22;57789;53.868;10.728;2023-08-21T01:48:28;17.90;99.90
70368;DHT22;57789;53.868;10.728;2023-08-21T01:50:54;17.90;99.90
70368;DHT22;57789;53.868;10.728;2023-08-21T01:53:19;17.80;99.90
70368;DHT22;57789;53.868;10.728;2023-08-21T01:55:45;17.80;99.90
70368;DHT22;57789;53.868;10.728;2023-08-21T01:58:11;17.80;99.90
70368;DHT22;57789;53.868;10.728;2023-08-21T02:00:37;17.70;99.90
70368;DHT22;57789;53.868;10.728;2023-08-21T02:03:02;17.70;99.90
70368;DHT22;57789;53.868;10.728;2023-08-21T02:05:28;17.70;99.90
70368;DHT22;57789;53.868;10.728;2023-08-21T02:07:54;17.60;99.90
70368;DHT22;57789;53.868;10.728;2023-08-21T02:10:19;17.30;99.90
70368;DHT22;57789;53.868;10.728;2023-08-21T02:12:45;17.30;99.90
70368;DHT22;57789;53.868;10.728;2023-08-21T02:15:10;17.40;99.90
70368;DHT22;57789;53.868;10.728;2023-08-21T02:17:36;17.40;99.90
70368;DHT22;57789;53.868;10.728;2023-08-21T02:20:02;17.40;99.90
70368;DHT22;57789;53.868;10.728;2023-08-21T02:22:28;17.10;99.90
70368;DHT22;57789;53.868;10.728;2023-08-21T02:24:53;17.10;99.90
70368;DHT22;57789;53.868;10.728;2023-08-21T02:27:19;17.10;99.90
70368;DHT22;57789;53.868;10.728;2023-08-21T02:29:44;17.10;99.90
70368;DHT22;57789;53.868;10.728;2023-08-21T02:32:10;17.10;99.90
70368;DHT22;57789;53.868;10.728;2023-08-21T02:34:36;17.20;99.90
70368;DHT22;57789;53.868;10.728;2023-08-21T02:37:02;17.20;99.90
70368;DHT22;57789;53.868;10.728;2023-08-21T02:39:28;17.20;99.90
70368;DHT22;57789;53.868;10.728;2023-08-21T02:41:54;17.10;99.90
70368;DHT22;57789;53.868;10.728;2023-08-21T02:44:19;17.00;99.90
70368;DHT22;57789;53.868;10.728;2023-08-21T02:46:45;17.10;99.90
70368;DHT22;57789;53.868;10.728;2023-08-21T02:49:10;17.00;99.90
70368;DHT22;57789;53.868;10.728;2023-08-21T02:51:36;17.10;99.90
70368;DHT22;57789;53.868;10.728;2023-08-21T02:54:02;17.10;99.90
70368;DHT22;57789;53.868;10.728;2023-08-21T02:56:28;17.20;99.90
70368;DHT22;57789;53.868;10.728;2023-08-21T02:58:53;17.20;99.90
70368;DHT22;57789;53.868;10.728;2023-08-21T03:01:19;17.20;99.90
70368;DHT22;57789;53.868;10.728;2023-08-21T03:03:44;17.10;99.90
70368;DHT22;57789;53.868;10.728;2023-08-21T03:06:10;17.10;99.90
70368;DHT22;57789;53.868;10.728;2023-08-21T03:08:36;17.00;99.90
70368;DHT22;57789;53.868;10.728;2023-08-21T03:11:01;16.90;99.90
70368;DHT22;57789;53.868;10.728;2023-08-21T03:13:27;17.00;99.90
70368;DHT22;57789;53.868;10.728;2023-08-21T03:15:52;17.00;99.90
70368;DHT22;57789;53.868;10.728;2023-08-21T03:18:18;17.10;99.90
70368;DHT22;57789;53.868;10.728;2023-08-21T03:20:45;17.10;99.90
70368;DHT22;57789;53.868;10.728;2023-08-21T03:23:11;17.20;99.90
70368;DHT22;57789;53.868;10.728;2023-08-21T03:25:37;17.20;99.90
70368;DHT22;57789;53.868;10.728;2023-08-21T03:28:03;17.30;99.90
70368;DHT22;57789;53.868;10.728;2023-08-21T03:30:28;17.30;99.90
70368;DHT22;57789;53.868;10.728;2023-08-21T03:32:54;17.20;99.90
70368;DHT22;57789;53.868;10.728;2023-08-21T03:35:20;17.20;99.90
70368;DHT22;57789;53.868;10.728;2023-08-21T03:37:45;17.20;99.90
70368;DHT22;57789;53.868;10.728;2023-08-21T03:40:11;17.20;99.90
70368;DHT22;57789;53.868;10.728;2023-08-21T03:42:37;17.20;99.90
70368;DHT22;57789;53.868;10.728;2023-08-21T03:45:03;17.10;99.90
70368;DHT22;57789;53.868;10.728;2023-08-21T03:47:32;17.00;99.90
70368;DHT22;57789;53.868;10.728;2023-08-21T03:50:00;17.00;99.90
70368;DHT22;57789;53.868;10.728;2023-08-21T03:52:26;17.00;99.90
70368;DHT22;57789;53.868;10.728;2023-08-21T03:54:51;16.90;99.90
70368;DHT22;57789;53.868;10.728;2023-08-21T03:57:17;16.90;99.90
70368;DHT22;57789;53.868;10.728;2023-08-21T03:59:43;16.80;99.90
70368;DHT22;57789;53.868;10.728;2023-08-21T04:02:08;16.60;99.90
70368;DHT22;57789;53.868;10.728;2023-08-21T04:04:34;16.50;99.90
70368;DHT22;57789;53.868;10.728;2023-08-21T04:07:00;16.50;99.90
70368;DHT22;57789;53.868;10.728;2023-08-21T04:09:25;16.70;99.90
70368;DHT22;57789;53.868;10.728;2023-08-21T04:11:51;16.80;99.90
70368;DHT22;57789;53.868;10.728;2023-08-21T04:14:16;16.80;99.90
70368;DHT22;57789;53.868;10.728;2023-08-21T04:16:42;16.90;99.90
70368;DHT22;57789;53.868;10.728;2023-08-21T04:19:08;16.90;99.90
70368;DHT22;57789;53.868;10.728;2023-08-21T04:21:33;16.90;99.90
70368;DHT22;57789;53.868;10.728;2023-08-21T04:23:59;16.90;99.90
70368;DHT22;57789;53.868;10.728;2023-08-21T04:26:25;16.80;99.90
70368;DHT22;57789;53.868;10.728;2023-08-21T04:28:51;16.80;99.90
70368;DHT22;57789;53.868;10.728;2023-08-21T04:31:16;16.80;99.90
70368;DHT22;57789;53.868;10.728;2023-08-21T04:33:42;16.90;99.90
70368;DHT22;57789;53.868;10.728;2023-08-21T04:36:08;16.90;99.90
70368;DHT22;57789;53.868;10.728;2023-08-21T04:38:39;16.90;99.90
70368;DHT22;57789;53.868;10.728;2023-08-21T04:41:08;16.90;99.90
70368;DHT22;57789;53.868;10.728;2023-08-21T04:43:34;16.90;99.90
70368;DHT22;57789;53.868;10.728;2023-08-21T04:45:59;16.80;99.90
70368;DHT22;57789;53.868;10.728;2023-08-21T04:48:25;16.70;99.90
70368;DHT22;57789;53.868;10.728;2023-08-21T04:50:51;16.70;99.90
70368;DHT22;57789;53.868;10.728;2023-08-21T04:53:16;16.60;99.90
70368;DHT22;57789;53.868;10.728;2023-08-21T04:55:42;16.70;99.90
70368;DHT22;57789;53.868;10.728;2023-08-21T04:58:08;16.60;99.90
70368;DHT22;57789;53.868;10.728;2023-08-21T05:00:34;16.60;99.90
70368;DHT22;57789;53.868;10.728;2023-08-21T05:03:00;16.70;99.90
70368;DHT22;57789;53.868;10.728;2023-08-21T05:05:26;16.60;99.90
70368;DHT22;57789;53.868;10.728;2023-08-21T05:07:55;16.60;99.90
70368;DHT22;57789;53.868;10.728;2023-08-21T05:10:21;16.70;99.90
70368;DHT22;57789;53.868;10.728;2023-08-21T05:12:47;16.70;99.90
70368;DHT22;57789;53.868;10.728;2023-08-21T05:15:12;16.70;99.90
70368;DHT22;57789;53.868;10.728;2023-08-21T05:17:38;16.70;99.90
70368;DHT22;57789;53.868;10.728;2023-08-21T05:20:04;16.80;99.90
70368;DHT22;57789;53.868;10.728;2023-08-21T05:22:30;16.80;99.90
70368;DHT22;57789;53.868;10.728;2023-08-21T05:24:55;16.80;99.90
70368;DHT22;57789;53.868;10.728;2023-08-21T05:27:21;16.90;99.90
70368;DHT22;57789;53.868;10.728;2023-08-21T05:29:47;16.90;99.90
70368;DHT22;57789;53.868;10.728;2023-08-21T05:32:14;16.90;99.90
70368;DHT22;57789;53.868;10.728;2023-08-21T05:34:40;17.00;99.90
70368;DHT22;57789;53.868;10.728;2023-08-21T05:37:05;17.00;99.90
70368;DHT22;57789;53.868;10.728;2023-08-21T05:39:32;17.00;99.90
70368;DHT22;57789;53.868;10.728;2023-08-21T05:41:57;17.00;99.90
70368;DHT22;57789;53.868;10.728;2023-08-21T05:44:24;17.00;99.90
70368;DHT22;57789;53.868;10.728;2023-08-21T05:46:49;17.10;99.90
70368;DHT22;57789;53.868;10.728;2023-08-21T05:49:15;17.20;99.90
70368;DHT22;57789;53.868;10.728;2023-08-21T05:51:41;17.20;99.90
70368;DHT22;57789;53.868;10.728;2023-08-21T05:54:06;17.20;99.90
70368;DHT22;57789;53.868;10.728;2023-08-21T05:56:32;17.30;99.90
70368;DHT22;57789;53.868;10.728;2023-08-21T05:58:57;17.40;99.90
70368;DHT22;57789;53.868;10.728;2023-08-21T06:01:23;17.40;99.90
70368;DHT22;57789;53.868;10.728;2023-08-21T06:03:49;17.40;99.90
70368;DHT22;57789;53.868;10.728;2023-08-21T06:06:14;17.50;99.90
70368;DHT22;57789;53.868;10.728;2023-08-21T06:08:40;17.60;99.90
70368;DHT22;57789;53.868;10.728;2023-08-21T06:11:06;17.60;99.90
70368;DHT22;57789;53.868;10.728;2023-08-21T06:13:31;17.60;99.90
70368;DHT22;57789;53.868;10.728;2023-08-21T06:15:57;17.70;99.90
70368;DHT22;57789;53.868;10.728;2023-08-21T06:18:22;17.80;99.90
70368;DHT22;57789;53.868;10.728;2023-08-21T06:20:49;17.80;99.90
70368;DHT22;57789;53.868;10.728;2023-08-21T06:23:19;17.80;99.90
70368;DHT22;57789;53.868;10.728;2023-08-21T06:25:44;17.90;99.90
70368;DHT22;57789;53.868;10.728;2023-08-21T06:28:10;18.00;99.90
70368;DHT22;57789;53.868;10.728;2023-08-21T06:30:36;18.00;99.90
70368;DHT22;57789;53.868;10.728;2023-08-21T06:33:01;18.00;99.90
70368;DHT22;57789;53.868;10.728;2023-08-21T06:35:27;18.00;99.90
70368;DHT22;57789;53.868;10.728;2023-08-21T06:37:53;18.10;99.90
70368;DHT22;57789;53.868;10.728;2023-08-21T06:40:19;18.10;99.90
70368;DHT22;57789;53.868;10.728;2023-08-21T06:42:45;18.20;99.90
70368;DHT22;57789;53.868;10.728;2023-08-21T06:45:11;18.20;99.90
70368;DHT22;57789;53.868;10.728;2023-08-21T06:47:36;18.20;99.90
70368;DHT22;57789;53.868;10.728;2023-08-21T06:50:02;18.20;99.90
70368;DHT22;57789;53.868;10.728;2023-08-21T06:52:28;18.30;99.90
70368;DHT22;57789;53.868;10.728;2023-08-21T06:54:53;18.30;99.90
70368;DHT22;57789;53.868;10.728;2023-08-21T06:57:19;18.30;99.90
70368;DHT22;57789;53.868;10.728;2023-08-21T06:59:44;18.40;99.90
70368;DHT22;57789;53.868;10.728;2023-08-21T07:02:10;18.50;99.90
70368;DHT22;57789;53.868;10.728;2023-08-21T07:04:36;18.60;99.90
70368;DHT22;57789;53.868;10.728;2023-08-21T07:07:01;18.70;99.90
70368;DHT22;57789;53.868;10.728;2023-08-21T07:09:27;18.80;99.90
70368;DHT22;57789;53.868;10.728;2023-08-21T07:11:53;18.90;99.90
70368;DHT22;57789;53.868;10.728;2023-08-21T07:14:19;18.90;99.90
70368;DHT22;57789;53.868;10.728;2023-08-21T07:16:45;19.00;99.90
70368;DHT22;57789;53.868;10.728;2023-08-21T07:19:10;19.10;99.90
70368;DHT22;57789;53.868;10.728;2023-08-21T07:21:36;19.20;99.90
70368;DHT22;57789;53.868;10.728;2023-08-21T07:24:03;19.20;99.90
70368;DHT22;57789;53.868;10.728;2023-08-21T07:26:29;19.30;99.90
70368;DHT22;57789;53.868;10.728;2023-08-21T07:28:55;19.40;99.90
70368;DHT22;57789;53.868;10.728;2023-08-21T07:31:21;19.50;99.90
70368;DHT22;57789;53.868;10.728;2023-08-21T07:33:46;19.50;99.90
70368;DHT22;57789;53.868;10.728;2023-08-21T07:36:12;19.50;99.90
70368;DHT22;57789;53.868;10.728;2023-08-21T07:38:42;19.50;99.90
70368;DHT22;57789;53.868;10.728;2023-08-21T07:41:09;19.60;99.90
70368;DHT22;57789;53.868;10.728;2023-08-21T07:43:36;19.50;99.90
70368;DHT22;57789;53.868;10.728;2023-08-21T07:46:03;19.50;99.90
70368;DHT22;57789;53.868;10.728;2023-08-21T07:48:30;19.50;99.90
70368;DHT22;57789;53.868;10.728;2023-08-21T07:50:56;19.60;99.90
70368;DHT22;57789;53.868;10.728;2023-08-21T07:53:22;19.60;99.90
70368;DHT22;57789;53.868;10.728;2023-08-21T07:55:48;19.70;99.90
70368;DHT22;57789;53.868;10.728;2023-08-21T07:58:13;19.80;99.90
70368;DHT22;57789;53.868;10.728;2023-08-21T08:00:39;19.90;99.90
70368;DHT22;57789;53.868;10.728;2023-08-21T08:03:05;19.90;99.90
70368;DHT22;57789;53.868;10.728;2023-08-21T08:05:33;19.80;99.90
70368;DHT22;57789;53.868;10.728;2023-08-21T08:07:59;19.90;99.90
70368;DHT22;57789;53.868;10.728;2023-08-21T08:10:25;19.90;99.90
70368;DHT22;57789;53.868;10.728;2023-08-21T08:12:51;19.90;99.90
70368;DHT22;57789;53.868;10.728;2023-08-21T08:15:17;20.00;99.90
70368;DHT22;57789;53.868;10.728;2023-08-21T08:17:43;20.00;99.90
70368;DHT22;57789;53.868;10.728;2023-08-21T08:20:11;20.10;99.90
70368;DHT22;57789;53.868;10.728;2023-08-21T08:22:37;20.30;99.90
70368;DHT22;57789;53.868;10.728;2023-08-21T08:25:04;20.40;99.90
70368;DHT22;57789;53.868;10.728;2023-08-21T08:27:32;20.40;99.90
70368;DHT22;57789;53.868;10.728;2023-08-21T08:29:58;20.50;99.90
70368;DHT22;57789;53.868;10.728;2023-08-21T08:32:25;20.70;99.90
70368;DHT22;57789;53.868;10.728;2023-08-21T08:34:51;20.80;99.90
70368;DHT22;57789;53.868;10.728;2023-08-21T08:37:17;20.90;99.90
70368;DHT22;57789;53.868;10.728;2023-08-21T08:39:43;21.00;99.90
70368;DHT22;57789;53.868;10.728;2023-08-21T08:42:09;20.80;99.90
70368;DHT22;57789;53.868;10.728;2023-08-21T08:44:36;20.60;99.90
70368;DHT22;57789;53.868;10.728;2023-08-21T08:47:03;20.50;99.90
70368;DHT22;57789;53.868;10.728;2023-08-21T08:49:30;20.50;99.90
70368;DHT22;57789;53.868;10.728;2023-08-21T08:51:58;20.50;99.90
70368;DHT22;57789;53.868;10.728;2023-08-21T08:54:24;20.50;99.90
70368;DHT22;57789;53.868;10.728;2023-08-21T08:56:51;20.60;99.90
70368;DHT22;57789;53.868;10.728;2023-08-21T08:59:17;20.70;99.90
70368;DHT22;57789;53.868;10.728;2023-08-21T09:01:43;20.80;99.90
70368;DHT22;57789;53.868;10.728;2023-08-21T09:04:09;20.90;99.90
70368;DHT22;57789;53.868;10.728;2023-08-21T09:06:36;21.00;99.90
70368;DHT22;57789;53.868;10.728;2023-08-21T09:09:02;21.20;99.90
70368;DHT22;57789;53.868;10.728;2023-08-21T09:11:28;21.40;99.90
70368;DHT22;57789;53.868;10.728;2023-08-21T09:13:54;21.50;99.90
70368;DHT22;57789;53.868;10.728;2023-08-21T09:16:21;21.40;99.90
70368;DHT22;57789;53.868;10.728;2023-08-21T09:18:52;21.40;99.90
70368;DHT22;57789;53.868;10.728;2023-08-21T09:21:19;21.40;99.90
70368;DHT22;57789;53.868;10.728;2023-08-21T09:23:45;21.40;99.90
70368;DHT22;57789;53.868;10.728;2023-08-21T09:26:21;21.30;99.90
70368;DHT22;57789;53.868;10.728;2023-08-21T09:28:51;21.10;99.90
70368;DHT22;57789;53.868;10.728;2023-08-21T09:31:29;21.00;99.90
70368;DHT22;57789;53.868;10.728;2023-08-21T09:33:59;21.20;99.90
70368;DHT22;57789;53.868;10.728;2023-08-21T09:36:29;21.20;99.90
70368;DHT22;57789;53.868;10.728;2023-08-21T09:38:55;21.40;99.90
70368;DHT22;57789;53.868;10.728;2023-08-21T09:41:21;21.50;99.90
70368;DHT22;57789;53.868;10.728;2023-08-21T09:43:47;21.40;99.90
70368;DHT22;57789;53.868;10.728;2023-08-21T09:46:16;21.40;99.90
70368;DHT22;57789;53.868;10.728;2023-08-21T09:48:44;21.60;99.90
70368;DHT22;57789;53.868;10.728;2023-08-21T09:51:10;21.80;99.90
70368;DHT22;57789;53.868;10.728;2023-08-21T09:53:37;21.90;99.90
70368;DHT22;57789;53.868;10.728;2023-08-21T09:56:03;21.80;99.90
70368;DHT22;57789;53.868;10.728;2023-08-21T09:58:29;21.70;99.90
70368;DHT22;57789;53.868;10.728;2023-08-21T10:00:59;21.80;99.90
70368;DHT22;57789;53.868;10.728;2023-08-21T10:03:28;21.80;99.90
70368;DHT22;57789;53.868;10.728;2023-08-21T10:05:56;21.90;99.90
70368;DHT22;57789;53.868;10.728;2023-08-21T10:08:25;21.80;99.90
70368;DHT22;57789;53.868;10.728;2023-08-21T10:10:53;21.80;99.90
70368;DHT22;57789;53.868;10.728;2023-08-21T10:13:20;21.80;99.90
70368;DHT22;57789;53.868;10.728;2023-08-21T10:15:46;21.90;99.90
70368;DHT22;57789;53.868;10.728;2023-08-21T10:18:29;21.90;99.90
70368;DHT22;57789;53.868;10.728;2023-08-21T10:20:55;21.90;99.90
70368;DHT22;57789;53.868;10.728;2023-08-21T10:23:39;21.80;99.90
70368;DHT22;57789;53.868;10.728;2023-08-21T10:26:07;21.70;99.90
70368;DHT22;57789;53.868;10.728;2023-08-21T10:28:43;21.80;99.90
70368;DHT22;57789;53.868;10.728;2023-08-21T10:31:40;21.90;99.90
70368;DHT22;57789;53.868;10.728;2023-08-21T10:34:10;21.90;99.90
70368;DHT22;57789;53.868;10.728;2023-08-21T10:39:23;21.80;99.90
70368;DHT22;57789;53.868;10.728;2023-08-21T10:42:09;21.70;99.90
70368;DHT22;57789;53.868;10.728;2023-08-21T10:47:22;22.00;99.90
70368;DHT22;57789;53.868;10.728;2023-08-21T10:49:56;22.10;99.90
70368;DHT22;57789;53.868;10.728;2023-08-21T10:52:28;22.20;99.90
70368;DHT22;57789;53.868;10.728;2023-08-21T10:54:58;22.20;99.90
70368;DHT22;57789;53.868;10.728;2023-08-21T10:57:25;22.30;99.90
70368;DHT22;57789;53.868;10.728;2023-08-21T10:59:59;22.50;99.90
70368;DHT22;57789;53.868;10.728;2023-08-21T11:02:27;22.70;99.90
70368;DHT22;57789;53.868;10.728;2023-08-21T11:04:57;22.70;99.90
70368;DHT22;57789;53.868;10.728;2023-08-21T11:07:24;22.60;99.90
70368;DHT22;57789;53.868;10.728;2023-08-21T11:09:50;22.40;99.90
70368;DHT22;57789;53.868;10.728;2023-08-21T11:12:19;22.40;99.90
70368;DHT22;57789;53.868;10.728;2023-08-21T11:14:45;22.30;99.90
70368;DHT22;57789;53.868;10.728;2023-08-21T11:17:11;22.60;99.90
70368;DHT22;57789;53.868;10.728;2023-08-21T11:19:37;22.70;99.90
70368;DHT22;57789;53.868;10.728;2023-08-21T11:22:04;22.70;99.90
70368;DHT22;57789;53.868;10.728;2023-08-21T11:27:12;22.80;99.90
70368;DHT22;57789;53.868;10.728;2023-08-21T11:29:47;22.70;99.90
70368;DHT22;57789;53.868;10.728;2023-08-21T11:32:14;22.60;99.90
70368;DHT22;57789;53.868;10.728;2023-08-21T11:35:01;22.70;99.90
70368;DHT22;57789;53.868;10.728;2023-08-21T11:37:28;22.70;99.90
70368;DHT22;57789;53.868;10.728;2023-08-21T11:39:56;22.80;99.90
70368;DHT22;57789;53.868;10.728;2023-08-21T11:42:29;23.10;99.90
70368;DHT22;57789;53.868;10.728;2023-08-21T11:44:55;23.30;99.90
70368;DHT22;57789;53.868;10.728;2023-08-21T11:47:22;23.60;99.90
70368;DHT22;57789;53.868;10.728;2023-08-21T11:49:48;23.80;99.90
70368;DHT22;57789;53.868;10.728;2023-08-21T11:52:22;24.10;99.90
70368;DHT22;57789;53.868;10.728;2023-08-21T11:54:50;24.00;99.90
70368;DHT22;57789;53.868;10.728;2023-08-21T11:57:17;23.80;99.90
70368;DHT22;57789;53.868;10.728;2023-08-21T11:59:48;24.00;99.90
70368;DHT22;57789;53.868;10.728;2023-08-21T12:02:19;24.00;99.90
70368;DHT22;57789;53.868;10.728;2023-08-21T12:04:55;24.30;99.90
70368;DHT22;57789;53.868;10.728;2023-08-21T12:07:25;24.40;99.90
70368;DHT22;57789;53.868;10.728;2023-08-21T12:09:51;24.50;99.90
70368;DHT22;57789;53.868;10.728;2023-08-21T12:12:17;24.50;99.90
70368;DHT22;57789;53.868;10.728;2023-08-21T12:14:43;24.40;99.90
70368;DHT22;57789;53.868;10.728;2023-08-21T12:17:09;24.50;99.90
70368;DHT22;57789;53.868;10.728;2023-08-21T12:19:34;24.70;99.90
70368;DHT22;57789;53.868;10.728;2023-08-21T12:22:00;24.90;99.90
70368;DHT22;57789;53.868;10.728;2023-08-21T12:24:26;25.10;99.90
70368;DHT22;57789;53.868;10.728;2023-08-21T12:26:51;25.20;99.90
70368;DHT22;57789;53.868;10.728;2023-08-21T12:29:17;25.10;99.90
70368;DHT22;57789;53.868;10.728;2023-08-21T12:31:43;24.80;99.90
70368;DHT22;57789;53.868;10.728;2023-08-21T12:34:09;24.50;99.90
70368;DHT22;57789;53.868;10.728;2023-08-21T12:36:35;24.50;99.90
70368;DHT22;57789;53.868;10.728;2023-08-21T12:39:02;24.40;99.90
70368;DHT22;57789;53.868;10.728;2023-08-21T12:41:29;24.50;99.90
70368;DHT22;57789;53.868;10.728;2023-08-21T12:43:54;24.70;99.90
70368;DHT22;57789;53.868;10.728;2023-08-21T12:46:20;25.00;99.90
70368;DHT22;57789;53.868;10.728;2023-08-21T12:48:46;25.30;99.90
70368;DHT22;57789;53.868;10.728;2023-08-21T12:51:12;25.50;99.90
70368;DHT22;57789;53.868;10.728;2023-08-21T12:53:37;25.90;99.90
70368;DHT22;57789;53.868;10.728;2023-08-21T12:56:03;26.10;99.90
70368;DHT22;57789;53.868;10.728;2023-08-21T12:58:29;26.20;99.90
70368;DHT22;57789;53.868;10.728;2023-08-21T13:00:55;26.20;99.90
70368;DHT22;57789;53.868;10.728;2023-08-21T13:03:20;26.40;99.90
70368;DHT22;57789;53.868;10.728;2023-08-21T13:05:46;26.30;99.90
70368;DHT22;57789;53.868;10.728;2023-08-21T13:08:12;26.30;99.50
70368;DHT22;57789;53.868;10.728;2023-08-21T13:10:37;26.60;99.90
70368;DHT22;57789;53.868;10.728;2023-08-21T13:13:03;26.90;99.60
70368;DHT22;57789;53.868;10.728;2023-08-21T13:15:29;26.80;99.20
70368;DHT22;57789;53.868;10.728;2023-08-21T13:17:56;27.40;99.80
70368;DHT22;57789;53.868;10.728;2023-08-21T13:20:22;28.30;98.90
70368;DHT22;57789;53.868;10.728;2023-08-21T13:22:52;28.50;91.00
70368;DHT22;57789;53.868;10.728;2023-08-21T13:25:23;28.20;86.80
70368;DHT22;57789;53.868;10.728;2023-08-21T13:27:50;27.90;88.40
70368;DHT22;57789;53.868;10.728;2023-08-21T13:30:16;27.70;87.10
70368;DHT22;57789;53.868;10.728;2023-08-21T13:32:43;28.10;84.70
70368;DHT22;57789;53.868;10.728;2023-08-21T13:35:09;28.60;83.00
70368;DHT22;57789;53.868;10.728;2023-08-21T13:37:39;28.40;82.10
70368;DHT22;57789;53.868;10.728;2023-08-21T13:40:06;27.80;83.20
70368;DHT22;57789;53.868;10.728;2023-08-21T13:42:40;27.10;89.10
70368;DHT22;57789;53.868;10.728;2023-08-21T13:45:10;27.70;88.40
70368;DHT22;57789;53.868;10.728;2023-08-21T13:47:38;27.90;88.70
70368;DHT22;57789;53.868;10.728;2023-08-21T13:50:05;28.40;86.80
70368;DHT22;57789;53.868;10.728;2023-08-21T13:52:31;27.90;87.60
70368;DHT22;57789;53.868;10.728;2023-08-21T13:54:58;28.00;89.00
70368;DHT22;57789;53.868;10.728;2023-08-21T13:57:24;27.60;88.50
70368;DHT22;57789;53.868;10.728;2023-08-21T13:59:50;27.10;90.20
70368;DHT22;57789;53.868;10.728;2023-08-21T14:02:15;27.10;90.80
70368;DHT22;57789;53.868;10.728;2023-08-21T14:04:41;27.20;91.20
70368;DHT22;57789;53.868;10.728;2023-08-21T14:07:07;27.60;88.80
70368;DHT22;57789;53.868;10.728;2023-08-21T14:09:32;28.30;85.00
70368;DHT22;57789;53.868;10.728;2023-08-21T14:11:58;29.20;84.60
70368;DHT22;57789;53.868;10.728;2023-08-21T14:14:23;29.80;80.30
70368;DHT22;57789;53.868;10.728;2023-08-21T14:16:49;29.90;75.10
70368;DHT22;57789;53.868;10.728;2023-08-21T14:19:15;30.20;75.10
70368;DHT22;57789;53.868;10.728;2023-08-21T14:21:40;30.90;73.10
70368;DHT22;57789;53.868;10.728;2023-08-21T14:24:06;31.40;70.00
70368;DHT22;57789;53.868;10.728;2023-08-21T14:26:33;30.20;66.70
70368;DHT22;57789;53.868;10.728;2023-08-21T14:28:58;29.60;70.20
70368;DHT22;57789;53.868;10.728;2023-08-21T14:31:24;29.80;71.60
70368;DHT22;57789;53.868;10.728;2023-08-21T14:33:50;30.00;67.50
70368;DHT22;57789;53.868;10.728;2023-08-21T14:36:16;30.00;69.50
70368;DHT22;57789;53.868;10.728;2023-08-21T14:38:41;29.90;69.10
70368;DHT22;57789;53.868;10.728;2023-08-21T14:41:07;30.40;69.90
70368;DHT22;57789;53.868;10.728;2023-08-21T14:43:33;30.70;68.70
70368;DHT22;57789;53.868;10.728;2023-08-21T14:45:58;30.30;66.50
70368;DHT22;57789;53.868;10.728;2023-08-21T14:48:24;30.60;67.30
70368;DHT22;57789;53.868;10.728;2023-08-21T14:50:50;29.90;66.70
70368;DHT22;57789;53.868;10.728;2023-08-21T14:53:16;29.90;66.90
70368;DHT22;57789;53.868;10.728;2023-08-21T14:55:41;30.10;66.10
70368;DHT22;57789;53.868;10.728;2023-08-21T14:58:07;30.00;64.30
70368;DHT22;57789;53.868;10.728;2023-08-21T15:00:35;30.20;66.40
70368;DHT22;57789;53.868;10.728;2023-08-21T15:03:00;30.00;64.40
70368;DHT22;57789;53.868;10.728;2023-08-21T15:05:27;29.20;64.80
70368;DHT22;57789;53.868;10.728;2023-08-21T15:07:53;29.00;67.50
70368;DHT22;57789;53.868;10.728;2023-08-21T15:10:20;29.00;66.30
70368;DHT22;57789;53.868;10.728;2023-08-21T15:12:46;28.70;67.50
70368;DHT22;57789;53.868;10.728;2023-08-21T15:15:11;28.50;69.50
70368;DHT22;57789;53.868;10.728;2023-08-21T15:17:37;29.00;68.20
70368;DHT22;57789;53.868;10.728;2023-08-21T15:20:03;29.30;68.70
70368;DHT22;57789;53.868;10.728;2023-08-21T15:22:33;29.60;69.20
70368;DHT22;57789;53.868;10.728;2023-08-21T15:24:58;30.30;66.90
70368;DHT22;57789;53.868;10.728;2023-08-21T15:27:24;30.50;66.00